Time;durP1;ratioP1;P1;durP2;ratioP2;P2;SDS_P1;SDS_P2;PMS_P1;PMS_P2;Temp;Humidity;BMP_temperature;BMP_pressure;BME280_temperature;BME280_humidity;BME280_pressure;Samples;Min_cycle;Max_cycle;Signal;HPM_P1;HPM_P2
2023/08/13 00:00:56;;;;;;;3.00;1.27;;;;;;;;;;5035874;28;20426;-80
2023/08/13 00:03:22;;;;;;;5.43;2.00;;;;;;;;;;5035992;28;20227;-80
2023/08/13 00:05:48;;;;;;;3.60;1.83;;;;;;;;;;5036264;28;20527;-80
2023/08/13 00:08:14;;;;;;;2.93;1.10;;;;;;;;;;5036242;28;20425;-80
2023/08/13 00:10:40;;;;;;;3.40;1.80;;;;;;;;;;5036165;28;20173;-80
2023/08/13 00:13:06;;;;;;;3.03;1.23;;;;;;;;;;5036058;28;20628;-80
2023/08/13 00:15:32;;;;;;;5.37;2.07;;;;;;;;;;5035776;28;20207;-80
2023/08/13 00:17:58;;;;;;;3.00;1.30;;;;;;;;;;5036043;28;20282;-80
2023/08/13 00:20:24;;;;;;;3.90;1.60;;;;;;;;;;5036033;28;20409;-80
2023/08/13 00:22:50;;;;;;;4.03;1.50;;;;;;;;;;5035886;28;20453;-80
2023/08/13 00:25:16;;;;;;;4.80;1.37;;;;;;;;;;5035823;28;20184;-80
2023/08/13 00:27:42;;;;;;;5.60;1.57;;;;;;;;;;5035857;28;20175;-80
2023/08/13 00:30:09;;;;;;;6.87;2.73;;;;;;;;;;5035397;28;20422;-80
2023/08/13 00:32:35;;;;;;;9.13;2.10;;;;;;;;;;5035744;28;20204;-80
2023/08/13 00:35:01;;;;;;;8.77;3.47;;;;;;;;;;5035586;28;20429;-80
2023/08/13 00:37:27;;;;;;;4.40;2.63;;;;;;;;;;5035636;28;20199;-80
2023/08/13 00:39:53;;;;;;;8.50;2.83;;;;;;;;;;5035577;28;20418;-80
2023/08/13 00:42:19;;;;;;;8.63;3.77;;;;;;;;;;5035594;28;20173;-80
2023/08/13 00:44:45;;;;;;;7.77;3.20;;;;;;;;;;5050534;28;20476;-80
2023/08/13 00:47:11;;;;;;;6.83;3.30;;;;;;;;;;5050824;28;20904;-80
2023/08/13 00:49:37;;;;;;;5.43;3.23;;;;;;;;;;5035493;28;20871;-80
2023/08/13 00:52:03;;;;;;;6.93;2.40;;;;;;;;;;5034860;28;20411;-80
2023/08/13 00:54:30;;;;;;;6.13;2.90;;;;;;;;;;5035315;28;20511;-80
2023/08/13 00:56:56;;;;;;;6.37;2.40;;;;;;;;;;5035222;28;20403;-80
2023/08/13 00:59:22;;;;;;;7.37;2.43;;;;;;;;;;5034949;28;20489;-80
2023/08/13 01:01:48;;;;;;;3.67;1.67;;;;;;;;;;5050460;28;20495;-79
2023/08/13 01:04:14;;;;;;;3.93;2.10;;;;;;;;;;5035032;28;20472;-80
2023/08/13 01:06:46;;;;;;;4.23;2.30;;;;;;;;;;5035107;28;20642;-80
2023/08/13 01:09:19;;;;;;;6.43;2.97;;;;;;;;;;5035011;28;20181;-80
2023/08/13 01:11:55;;;;;;;3.40;2.27;;;;;;;;;;5035105;28;20443;-80
2023/08/13 01:14:28;;;;;;;3.43;2.40;;;;;;;;;;5034597;28;20423;-80
2023/08/13 01:16:55;;;;;;;3.40;2.13;;;;;;;;;;5035006;28;20506;-80
2023/08/13 01:19:22;;;;;;;5.90;1.83;;;;;;;;;;5035045;28;20446;-80
2023/08/13 01:21:48;;;;;;;3.03;1.90;;;;;;;;;;5034883;28;20980;-80
2023/08/13 01:24:13;;;;;;;3.00;1.57;;;;;;;;;;5034595;28;20474;-80
2023/08/13 01:26:45;;;;;;;4.90;1.80;;;;;;;;;;5034762;28;20401;-80
2023/08/13 01:29:16;;;;;;;2.70;1.50;;;;;;;;;;5034330;28;20452;-80
2023/08/13 01:31:46;;;;;;;5.13;1.27;;;;;;;;;;5034709;28;20441;-80
2023/08/13 01:34:13;;;;;;;4.00;1.83;;;;;;;;;;5034564;28;20903;-80
2023/08/13 01:36:39;;;;;;;4.37;2.43;;;;;;;;;;5034537;28;20462;-80
2023/08/13 01:39:06;;;;;;;5.00;2.10;;;;;;;;;;5034485;28;20451;-80
2023/08/13 01:41:45;;;;;;;5.07;2.30;;;;;;;;;;5034474;28;20422;-80
2023/08/13 01:44:11;;;;;;;7.17;2.13;;;;;;;;;;5033955;28;20553;-80
2023/08/13 01:46:37;;;;;;;5.80;1.93;;;;;;;;;;5034332;28;20420;-80
2023/08/13 01:49:03;;;;;;;3.10;2.13;;;;;;;;;;5034401;28;20445;-80
2023/08/13 01:51:29;;;;;;;4.53;1.60;;;;;;;;;;5034341;28;20880;-80
2023/08/13 01:53:55;;;;;;;2.90;1.50;;;;;;;;;;5034246;28;20417;-80
2023/08/13 01:56:21;;;;;;;5.53;2.10;;;;;;;;;;5034238;28;20185;-80
2023/08/13 01:58:47;;;;;;;5.30;1.27;;;;;;;;;;5034129;28;20416;-80
2023/08/13 02:01:12;;;;;;;4.30;1.10;;;;;;;;;;5033710;28;20530;-80
2023/08/13 02:03:38;;;;;;;3.37;0.90;;;;;;;;;;5032946;28;20231;-80
2023/08/13 02:06:04;;;;;;;6.13;2.10;;;;;;;;;;5034002;28;20216;-80
2023/08/13 02:08:31;;;;;;;5.00;1.90;;;;;;;;;;5049350;28;20425;-80
2023/08/13 02:10:58;;;;;;;7.33;2.40;;;;;;;;;;5033958;28;20469;-80
2023/08/13 02:13:24;;;;;;;5.63;1.90;;;;;;;;;;5033865;28;20422;-80
2023/08/13 02:15:50;;;;;;;5.37;2.27;;;;;;;;;;5048778;28;20414;-80
2023/08/13 02:18:16;;;;;;;6.37;2.07;;;;;;;;;;5049084;28;20532;-80
2023/08/13 02:20:41;;;;;;;3.40;1.53;;;;;;;;;;5033719;28;20890;-80
2023/08/13 02:23:07;;;;;;;4.30;1.43;;;;;;;;;;5033555;28;20461;-80
2023/08/13 02:25:33;;;;;;;4.37;1.67;;;;;;;;;;5033640;28;20635;-80
2023/08/13 02:27:59;;;;;;;4.60;1.40;;;;;;;;;;5033663;28;20249;-80
2023/08/13 02:30:25;;;;;;;5.23;1.70;;;;;;;;;;5033224;28;20176;-80
2023/08/13 02:32:51;;;;;;;5.73;1.90;;;;;;;;;;5033535;28;20180;-80
2023/08/13 02:35:17;;;;;;;6.50;1.90;;;;;;;;;;5033458;28;20415;-80
2023/08/13 02:37:43;;;;;;;4.53;2.43;;;;;;;;;;5033466;28;20209;-80
2023/08/13 02:40:09;;;;;;;5.40;3.50;;;;;;;;;;5033417;28;20572;-80
2023/08/13 02:42:35;;;;;;;10.83;2.70;;;;;;;;;;5033216;28;20208;-80
2023/08/13 02:45:00;;;;;;;5.80;3.00;;;;;;;;;;5032970;28;20497;-80
2023/08/13 02:47:26;;;;;;;4.70;2.30;;;;;;;;;;5033277;28;20310;-80
2023/08/13 02:49:52;;;;;;;4.80;2.33;;;;;;;;;;5033336;28;20514;-80
2023/08/13 02:52:18;;;;;;;9.30;2.90;;;;;;;;;;5032168;28;20172;-81
2023/08/13 02:54:44;;;;;;;6.50;2.20;;;;;;;;;;5033195;28;20623;-80
2023/08/13 02:57:10;;;;;;;10.10;2.20;;;;;;;;;;5033125;28;20196;-80
2023/08/13 02:59:36;;;;;;;4.30;2.50;;;;;;;;;;5032663;28;20242;-81
2023/08/13 03:02:02;;;;;;;4.90;2.00;;;;;;;;;;5032922;28;20526;-80
2023/08/13 03:04:28;;;;;;;6.23;2.40;;;;;;;;;;5048285;28;20492;-80
2023/08/13 03:06:53;;;;;;;3.40;2.43;;;;;;;;;;5033006;28;20173;-81
2023/08/13 03:09:20;;;;;;;4.80;2.47;;;;;;;;;;5033063;28;20182;-80
2023/08/13 03:11:46;;;;;;;3.83;2.07;;;;;;;;;;5032981;28;20163;-80
2023/08/13 03:14:12;;;;;;;5.70;3.17;;;;;;;;;;5032416;28;20412;-80
2023/08/13 03:16:38;;;;;;;3.93;2.30;;;;;;;;;;5032889;28;20407;-80
2023/08/13 03:19:04;;;;;;;4.70;1.93;;;;;;;;;;5032902;28;20465;-80
2023/08/13 03:21:30;;;;;;;3.50;2.07;;;;;;;;;;5032868;28;20506;-80
2023/08/13 03:23:56;;;;;;;4.83;1.43;;;;;;;;;;5032890;28;20468;-80
2023/08/13 03:26:22;;;;;;;7.40;2.67;;;;;;;;;;5032855;28;20190;-80
2023/08/13 03:28:48;;;;;;;3.93;1.33;;;;;;;;;;5032510;28;20253;-80
2023/08/13 03:31:14;;;;;;;5.00;2.10;;;;;;;;;;5048124;28;20608;-80
2023/08/13 03:33:40;;;;;;;5.63;1.80;;;;;;;;;;5032838;28;20179;-80
2023/08/13 03:36:05;;;;;;;9.63;2.93;;;;;;;;;;5032833;28;20914;-80
2023/08/13 03:38:31;;;;;;;4.07;1.90;;;;;;;;;;5032774;28;20214;-80
2023/08/13 03:40:57;;;;;;;6.37;2.10;;;;;;;;;;5032662;28;20174;-80
2023/08/13 03:43:23;;;;;;;4.40;2.23;;;;;;;;;;5032651;28;20830;-80
2023/08/13 03:45:49;;;;;;;5.10;2.60;;;;;;;;;;5032386;28;20465;-80
2023/08/13 03:48:15;;;;;;;6.90;2.03;;;;;;;;;;5032681;28;20402;-80
2023/08/13 03:50:41;;;;;;;5.33;2.20;;;;;;;;;;5032653;28;20424;-80
2023/08/13 03:53:08;;;;;;;2.97;1.80;;;;;;;;;;5032655;28;20470;-80
2023/08/13 03:55:34;;;;;;;3.93;1.43;;;;;;;;;;5032563;28;20415;-80
2023/08/13 03:57:59;;;;;;;4.60;1.20;;;;;;;;;;5032596;28;20890;-80
2023/08/13 04:00:25;;;;;;;5.50;1.80;;;;;;;;;;5032192;28;20227;-80
2023/08/13 04:02:51;;;;;;;6.40;2.43;;;;;;;;;;5047581;28;20482;-80
2023/08/13 04:05:17;;;;;;;4.67;1.60;;;;;;;;;;5047865;28;20176;-80
2023/08/13 04:07:43;;;;;;;10.10;3.00;;;;;;;;;;5032513;28;20826;-80
2023/08/13 04:10:09;;;;;;;4.87;2.20;;;;;;;;;;5032426;28;20427;-80
2023/08/13 04:12:35;;;;;;;3.70;2.10;;;;;;;;;;5032418;28;20507;-80
2023/08/13 04:15:02;;;;;;;3.70;1.40;;;;;;;;;;5032055;28;20450;-80
2023/08/13 04:17:28;;;;;;;5.70;2.40;;;;;;;;;;5032463;28;20213;-80
2023/08/13 04:19:54;;;;;;;6.03;2.60;;;;;;;;;;5032355;28;20449;-80
2023/08/13 04:22:20;;;;;;;4.77;2.03;;;;;;;;;;5032380;28;20250;-81
2023/08/13 04:24:51;;;;;;;3.60;2.63;;;;;;;;;;5032221;28;20212;-81
2023/08/13 04:27:19;;;;;;;7.10;2.37;;;;;;;;;;5033833;28;20172;-81
2023/08/13 04:29:45;;;;;;;4.70;2.07;;;;;;;;;;5035540;28;20463;-81
2023/08/13 04:32:12;;;;;;;7.67;2.73;;;;;;;;;;5051194;28;20419;-81
2023/08/13 04:34:37;;;;;;;9.13;2.17;;;;;;;;;;5035759;28;20410;-80
2023/08/13 04:37:03;;;;;;;3.90;1.60;;;;;;;;;;5035704;28;20767;-80
2023/08/13 04:39:29;;;;;;;4.03;1.90;;;;;;;;;;5035588;28;20749;-81
2023/08/13 04:42:02;;;;;;;4.33;2.63;;;;;;;;;;5035665;28;20473;-81
2023/08/13 04:44:28;;;;;;;5.20;2.30;;;;;;;;;;5035132;28;20215;-80
2023/08/13 04:46:54;;;;;;;4.47;1.77;;;;;;;;;;5050891;28;20425;-81
2023/08/13 04:49:20;;;;;;;4.40;2.60;;;;;;;;;;5035432;28;20422;-80
2023/08/13 04:51:46;;;;;;;4.17;2.73;;;;;;;;;;5035429;28;20424;-80
2023/08/13 04:54:12;;;;;;;5.70;2.67;;;;;;;;;;5034180;28;20393;-81
2023/08/13 04:56:37;;;;;;;7.97;2.10;;;;;;;;;;5035336;28;20176;-81
2023/08/13 04:59:04;;;;;;;5.33;2.20;;;;;;;;;;5034980;28;20440;-80
2023/08/13 05:01:30;;;;;;;5.40;2.23;;;;;;;;;;5035003;28;20245;-80
2023/08/13 05:03:55;;;;;;;8.47;3.13;;;;;;;;;;5035111;28;20471;-81
2023/08/13 05:06:22;;;;;;;4.63;2.50;;;;;;;;;;5035206;28;20176;-80
2023/08/13 05:08:48;;;;;;;3.10;2.27;;;;;;;;;;5034974;28;20622;-81
2023/08/13 05:11:14;;;;;;;5.00;2.60;;;;;;;;;;5035127;28;20426;-80
2023/08/13 05:13:39;;;;;;;6.97;2.50;;;;;;;;;;5034690;28;20557;-81
2023/08/13 05:16:05;;;;;;;5.90;2.13;;;;;;;;;;5034985;28;20534;-80
2023/08/13 05:18:31;;;;;;;6.20;2.70;;;;;;;;;;5034901;28;20170;-81
2023/08/13 05:20:57;;;;;;;5.30;2.53;;;;;;;;;;5034855;28;20175;-81
2023/08/13 05:23:23;;;;;;;4.47;2.97;;;;;;;;;;5034825;28;20208;-80
2023/08/13 05:25:49;;;;;;;7.90;3.20;;;;;;;;;;5034833;28;20445;-81
2023/08/13 05:28:15;;;;;;;8.03;2.80;;;;;;;;;;5034726;28;20759;-81
2023/08/13 05:30:41;;;;;;;5.00;2.20;;;;;;;;;;5034560;28;20168;-81
2023/08/13 05:33:07;;;;;;;5.87;3.23;;;;;;;;;;5034661;28;20218;-81
2023/08/13 05:35:33;;;;;;;6.67;2.90;;;;;;;;;;5034617;28;20269;-81
2023/08/13 05:37:58;;;;;;;7.50;3.83;;;;;;;;;;5034464;28;20193;-81
2023/08/13 05:40:24;;;;;;;5.87;2.60;;;;;;;;;;5034511;28;20424;-81
2023/08/13 05:42:50;;;;;;;6.53;3.10;;;;;;;;;;5034376;28;20179;-81
2023/08/13 05:45:17;;;;;;;6.80;3.47;;;;;;;;;;5034085;28;20187;-81
2023/08/13 05:47:43;;;;;;;6.00;3.20;;;;;;;;;;5034361;28;20406;-81
2023/08/13 05:50:09;;;;;;;10.03;2.70;;;;;;;;;;5034484;28;20767;-81
2023/08/13 05:52:35;;;;;;;6.57;3.37;;;;;;;;;;5034262;28;20177;-81
2023/08/13 05:55:01;;;;;;;4.70;2.77;;;;;;;;;;5034255;28;20419;-81
2023/08/13 05:57:27;;;;;;;4.27;2.40;;;;;;;;;;5034152;28;20486;-81
2023/08/13 05:59:53;;;;;;;5.57;2.80;;;;;;;;;;5033848;28;20418;-81
2023/08/13 06:02:19;;;;;;;6.70;3.00;;;;;;;;;;5033842;28;20450;-81
2023/08/13 06:04:44;;;;;;;4.43;2.03;;;;;;;;;;5049334;28;20218;-81
2023/08/13 06:07:10;;;;;;;7.00;2.47;;;;;;;;;;5034017;28;20670;-81
2023/08/13 06:09:36;;;;;;;6.97;2.60;;;;;;;;;;5033988;28;20188;-82
2023/08/13 06:12:02;;;;;;;5.53;2.37;;;;;;;;;;5033900;28;20174;-81
2023/08/13 06:14:28;;;;;;;4.70;2.80;;;;;;;;;;5033514;28;20692;-82
2023/08/13 06:16:54;;;;;;;6.07;2.27;;;;;;;;;;5033804;28;20431;-81
2023/08/13 06:19:20;;;;;;;7.20;2.00;;;;;;;;;;5033717;28;20435;-81
2023/08/13 06:21:46;;;;;;;6.17;2.37;;;;;;;;;;5033745;28;20546;-81
2023/08/13 06:24:12;;;;;;;5.80;2.53;;;;;;;;;;5033573;28;20469;-82
2023/08/13 06:26:38;;;;;;;6.40;2.70;;;;;;;;;;5033620;28;20409;-81
2023/08/13 06:29:04;;;;;;;6.10;2.60;;;;;;;;;;5033320;28;20180;-81
2023/08/13 06:31:30;;;;;;;4.30;2.53;;;;;;;;;;5033623;28;20176;-81
2023/08/13 06:33:55;;;;;;;4.83;2.73;;;;;;;;;;5033499;28;20432;-82
2023/08/13 06:36:21;;;;;;;7.17;2.00;;;;;;;;;;5033466;28;20204;-81
2023/08/13 06:38:47;;;;;;;4.30;2.07;;;;;;;;;;5048804;28;20194;-81
2023/08/13 06:41:13;;;;;;;3.73;1.80;;;;;;;;;;5033436;28;20516;-81
2023/08/13 06:43:39;;;;;;;6.10;3.00;;;;;;;;;;5032979;28;20210;-81
2023/08/13 06:46:05;;;;;;;3.00;2.43;;;;;;;;;;5033371;28;20416;-81
2023/08/13 06:48:32;;;;;;;5.07;1.50;;;;;;;;;;5048554;28;20208;-82
2023/08/13 06:50:58;;;;;;;4.43;1.60;;;;;;;;;;5032826;28;20506;-81
2023/08/13 06:53:24;;;;;;;8.07;2.07;;;;;;;;;;5033314;28;20417;-81
2023/08/13 06:55:51;;;;;;;3.43;1.57;;;;;;;;;;5033208;28;20765;-81
2023/08/13 06:58:17;;;;;;;3.93;1.60;;;;;;;;;;5032785;28;20424;-82
2023/08/13 07:00:44;;;;;;;4.77;2.20;;;;;;;;;;5033102;28;20454;-82
2023/08/13 07:03:10;;;;;;;3.50;1.03;;;;;;;;;;5032864;28;20472;-81
2023/08/13 07:05:37;;;;;;;5.77;1.60;;;;;;;;;;5033025;28;20425;-82
2023/08/13 07:08:04;;;;;;;3.53;1.30;;;;;;;;;;5033071;28;20403;-82
2023/08/13 07:10:30;;;;;;;2.97;1.50;;;;;;;;;;5035174;28;20444;-83
2023/08/13 07:12:56;;;;;;;4.17;1.57;;;;;;;;;;5032878;28;20436;-82
2023/08/13 07:15:21;;;;;;;3.10;1.83;;;;;;;;;;5032487;28;20844;-82
2023/08/13 07:17:47;;;;;;;4.07;1.57;;;;;;;;;;5032802;28;20513;-82
2023/08/13 07:20:16;;;;;;;5.10;1.60;;;;;;;;;;5032880;28;20182;-82
2023/08/13 07:22:43;;;;;;;4.20;2.00;;;;;;;;;;5032806;28;20209;-82
2023/08/13 07:25:09;;;;;;;5.10;1.57;;;;;;;;;;5032841;28;20889;-82
2023/08/13 07:27:35;;;;;;;3.43;1.87;;;;;;;;;;5048214;28;20428;-82
2023/08/13 07:30:01;;;;;;;5.23;1.90;;;;;;;;;;5032421;28;20425;-82
2023/08/13 07:32:28;;;;;;;8.47;2.43;;;;;;;;;;5032708;28;20181;-82
2023/08/13 07:34:54;;;;;;;3.40;1.30;;;;;;;;;;5032741;28;20413;-84
2023/08/13 07:37:20;;;;;;;4.57;1.33;;;;;;;;;;5032753;28;20420;-82
2023/08/13 07:39:46;;;;;;;6.57;1.83;;;;;;;;;;5032739;28;20409;-83
2023/08/13 07:42:12;;;;;;;5.07;2.70;;;;;;;;;;5048045;28;20955;-82
2023/08/13 07:44:38;;;;;;;8.43;1.67;;;;;;;;;;5032257;28;20214;-82
2023/08/13 07:47:05;;;;;;;4.23;1.20;;;;;;;;;;5032697;28;20229;-82
2023/08/13 07:49:31;;;;;;;5.73;1.50;;;;;;;;;;5032651;28;20695;-83
2023/08/13 07:51:57;;;;;;;6.67;1.43;;;;;;;;;;5032644;28;20401;-81
2023/08/13 07:54:23;;;;;;;4.40;1.53;;;;;;;;;;5032613;28;20475;-82
2023/08/13 07:56:49;;;;;;;4.80;1.20;;;;;;;;;;5032620;28;20484;-82
2023/08/13 07:59:15;;;;;;;4.93;1.03;;;;;;;;;;5032166;28;20451;-82
2023/08/13 08:01:42;;;;;;;6.57;1.70;;;;;;;;;;5032974;28;20257;-82
2023/08/13 08:04:08;;;;;;;4.07;1.10;;;;;;;;;;5051710;28;20236;-82
2023/08/13 08:06:34;;;;;;;2.53;0.73;;;;;;;;;;5036279;28;20436;-83
2023/08/13 08:09:00;;;;;;;3.60;0.83;;;;;;;;;;5051566;28;20511;-83
2023/08/13 08:11:26;;;;;;;5.43;0.90;;;;;;;;;;5036166;28;20658;-82
2023/08/13 08:13:52;;;;;;;2.50;0.50;;;;;;;;;;5035647;28;20468;-83
2023/08/13 08:16:18;;;;;;;4.47;1.23;;;;;;;;;;5036066;28;20178;-82
2023/08/13 08:18:44;;;;;;;5.73;1.43;;;;;;;;;;5036043;28;20202;-82
2023/08/13 08:21:10;;;;;;;4.43;0.93;;;;;;;;;;5035980;28;20261;-81
2023/08/13 08:23:36;;;;;;;3.87;1.53;;;;;;;;;;5036020;28;20178;-83
2023/08/13 08:26:02;;;;;;;3.43;1.13;;;;;;;;;;5035961;28;20508;-82
2023/08/13 08:28:28;;;;;;;2.13;0.93;;;;;;;;;;5035451;28;20514;-82
2023/08/13 08:30:54;;;;;;;3.40;0.93;;;;;;;;;;5035827;28;20413;-83
2023/08/13 08:33:23;;;;;;;3.77;0.97;;;;;;;;;;5035758;28;20210;-82
2023/08/13 08:35:49;;;;;;;5.73;1.07;;;;;;;;;;5035718;28;20925;-82
2023/08/13 08:38:15;;;;;;;3.73;1.20;;;;;;;;;;5035640;28;20405;-82
2023/08/13 08:40:48;;;;;;;6.40;1.20;;;;;;;;;;5035581;28;20432;-82
2023/08/13 08:43:15;;;;;;;6.10;0.93;;;;;;;;;;5035307;28;20471;-82
2023/08/13 08:45:41;;;;;;;5.37;1.23;;;;;;;;;;5035498;28;20968;-82
2023/08/13 08:48:08;;;;;;;3.63;0.70;;;;;;;;;;5035495;28;20409;-82
2023/08/13 08:50:36;;;;;;;3.60;0.87;;;;;;;;;;5035472;28;20413;-84
2023/08/13 08:53:02;;;;;;;3.70;1.40;;;;;;;;;;5035272;28;20424;-82
2023/08/13 08:55:28;;;;;;;5.57;0.83;;;;;;;;;;5035376;28;20784;-82
2023/08/13 08:57:54;;;;;;;3.13;0.63;;;;;;;;;;5034936;28;20170;-82
2023/08/13 09:00:20;;;;;;;3.03;1.17;;;;;;;;;;5035199;28;20174;-82
2023/08/13 09:02:46;;;;;;;3.10;0.80;;;;;;;;;;5035071;28;20594;-82
2023/08/13 09:05:12;;;;;;;2.77;0.67;;;;;;;;;;5035192;28;20416;-82
2023/08/13 09:07:42;;;;;;;1.63;0.50;;;;;;;;;;5050392;28;20895;-82
2023/08/13 09:10:08;;;;;;;2.30;0.43;;;;;;;;;;5035097;28;20452;-82
2023/08/13 09:12:35;;;;;;;4.20;0.57;;;;;;;;;;5050007;28;20523;-82
2023/08/13 09:15:08;;;;;;;4.07;1.13;;;;;;;;;;5049924;28;20480;-82
2023/08/13 09:17:34;;;;;;;4.00;0.87;;;;;;;;;;5034917;28;20893;-82
2023/08/13 09:20:21;;;;;;;4.40;1.27;;;;;;;;;;5034903;28;20424;-82
2023/08/13 09:22:50;;;;;;;2.70;0.87;;;;;;;;;;5034760;28;20423;-82
2023/08/13 09:25:17;;;;;;;4.93;0.70;;;;;;;;;;5050156;28;20420;-84
2023/08/13 09:27:43;;;;;;;4.17;0.70;;;;;;;;;;5034376;28;20924;-80
2023/08/13 09:30:19;;;;;;;4.57;0.53;;;;;;;;;;5034709;28;20413;-81
2023/08/13 09:32:46;;;;;;;3.30;0.40;;;;;;;;;;5034678;28;20408;-80
2023/08/13 09:35:12;;;;;;;1.90;0.50;;;;;;;;;;5034582;28;20445;-80
2023/08/13 09:37:38;;;;;;;3.10;1.20;;;;;;;;;;5034571;28;20413;-82
2023/08/13 09:40:05;;;;;;;2.70;0.57;;;;;;;;;;5049870;28;20210;-81
2023/08/13 09:42:32;;;;;;;2.13;0.50;;;;;;;;;;5034410;28;20412;-83
2023/08/13 09:44:59;;;;;;;2.13;0.43;;;;;;;;;;5034246;28;20413;-83
2023/08/13 09:47:26;;;;;;;3.53;0.57;;;;;;;;;;5034361;28;20424;-82
2023/08/13 09:49:54;;;;;;;2.70;0.50;;;;;;;;;;5034392;28;20409;-82
2023/08/13 09:52:23;;;;;;;2.63;0.50;;;;;;;;;;5034296;28;20408;-83
2023/08/13 09:54:51;;;;;;;3.17;0.60;;;;;;;;;;5034126;28;20886;-83
2023/08/13 09:57:17;;;;;;;1.90;0.40;;;;;;;;;;5049496;28;20902;-80
2023/08/13 09:59:44;;;;;;;1.60;0.50;;;;;;;;;;5033700;28;20421;-82
2023/08/13 10:02:13;;;;;;;3.07;0.37;;;;;;;;;;5033851;28;20527;-81
2023/08/13 10:04:39;;;;;;;1.10;0.20;;;;;;;;;;5034135;28;20460;-80
2023/08/13 10:07:06;;;;;;;2.30;0.47;;;;;;;;;;5034055;28;20402;-80
2023/08/13 10:09:35;;;;;;;4.83;0.50;;;;;;;;;;5033842;28;20413;-80
2023/08/13 10:12:02;;;;;;;1.50;0.30;;;;;;;;;;5033836;28;20413;-81
2023/08/13 10:14:28;;;;;;;1.40;0.30;;;;;;;;;;5033449;28;20472;-81
2023/08/13 10:16:54;;;;;;;2.20;0.30;;;;;;;;;;5033794;28;20496;-79
2023/08/13 10:19:27;;;;;;;1.63;0.20;;;;;;;;;;5033762;28;20409;-81
2023/08/13 10:21:56;;;;;;;1.57;0.27;;;;;;;;;;5033707;28;20415;-81
2023/08/13 10:24:23;;;;;;;2.93;0.80;;;;;;;;;;5048088;28;20951;-81
2023/08/13 10:26:49;;;;;;;2.83;0.40;;;;;;;;;;5033551;28;20898;-81
2023/08/13 10:29:16;;;;;;;3.37;0.67;;;;;;;;;;5033242;28;20423;-81
2023/08/13 10:31:49;;;;;;;2.30;0.50;;;;;;;;;;5033486;28;20417;-81
2023/08/13 10:34:17;;;;;;;1.50;0.47;;;;;;;;;;5033584;28;20602;-80
2023/08/13 10:36:44;;;;;;;4.80;0.40;;;;;;;;;;5033569;28;20405;-80
2023/08/13 10:39:30;;;;;;;4.10;0.50;;;;;;;;;;5033421;28;20504;-80
2023/08/13 10:41:56;;;;;;;1.47;0.30;;;;;;;;;;5033431;28;20417;-80
2023/08/13 10:44:28;;;;;;;2.20;0.43;;;;;;;;;;5033008;28;20409;-80
2023/08/13 10:46:54;;;;;;;2.20;0.40;;;;;;;;;;5033270;28;20269;-80
2023/08/13 10:49:20;;;;;;;2.57;0.47;;;;;;;;;;5033206;28;20927;-80
2023/08/13 10:51:49;;;;;;;3.20;0.50;;;;;;;;;;5033215;28;20504;-80
2023/08/13 10:54:15;;;;;;;1.23;0.30;;;;;;;;;;5033100;28;20476;-81
2023/08/13 10:56:47;;;;;;;1.17;0.40;;;;;;;;;;5033161;28;20724;-80
2023/08/13 10:59:13;;;;;;;2.00;0.37;;;;;;;;;;5032880;28;20197;-82
2023/08/13 11:01:59;;;;;;;4.07;0.73;;;;;;;;;;5033016;28;20405;-82
2023/08/13 11:04:25;;;;;;;2.00;0.30;;;;;;;;;;5029137;28;20574;-82
2023/08/13 11:06:51;;;;;;;3.73;0.77;;;;;;;;;;5033040;28;20401;-82
2023/08/13 11:09:17;;;;;;;1.70;0.57;;;;;;;;;;5033024;28;20401;-82
2023/08/13 11:11:43;;;;;;;2.50;0.50;;;;;;;;;;5033043;28;20202;-82
2023/08/13 11:14:09;;;;;;;2.60;0.30;;;;;;;;;;5032583;28;20473;-82
2023/08/13 11:16:38;;;;;;;2.47;0.33;;;;;;;;;;5032933;28;20770;-82
2023/08/13 11:19:04;;;;;;;3.10;0.63;;;;;;;;;;5032778;28;20411;-82
2023/08/13 11:21:30;;;;;;;1.33;0.40;;;;;;;;;;5048213;28;20763;-82
2023/08/13 11:23:56;;;;;;;2.83;0.53;;;;;;;;;;5032820;28;20428;-82
2023/08/13 11:26:22;;;;;;;1.67;0.30;;;;;;;;;;5032887;28;20177;-82
2023/08/13 11:28:50;;;;;;;2.83;0.77;;;;;;;;;;5032494;28;20416;-83
2023/08/13 11:31:16;;;;;;;1.93;0.33;;;;;;;;;;5032868;28;20254;-82
2023/08/13 11:33:42;;;;;;;1.90;0.20;;;;;;;;;;5033797;28;20607;-82
2023/08/13 11:36:08;;;;;;;2.70;0.47;;;;;;;;;;5049693;28;20225;-82
2023/08/13 11:38:34;;;;;;;2.27;0.43;;;;;;;;;;5036791;28;20279;-82
2023/08/13 11:41:10;;;;;;;1.43;0.43;;;;;;;;;;5036836;28;20175;-82
2023/08/13 11:43:36;;;;;;;2.50;0.60;;;;;;;;;;5036303;28;20756;-82
2023/08/13 11:46:03;;;;;;;2.37;0.47;;;;;;;;;;5036683;28;20416;-82
2023/08/13 11:48:31;;;;;;;2.37;0.57;;;;;;;;;;5036680;28;20180;-82
2023/08/13 11:50:57;;;;;;;2.23;0.70;;;;;;;;;;5051984;28;20417;-82
2023/08/13 11:53:23;;;;;;;2.40;0.40;;;;;;;;;;5036485;28;20488;-81
2023/08/13 11:55:49;;;;;;;0.80;0.23;;;;;;;;;;5036509;28;20886;-82
2023/08/13 11:58:17;;;;;;;2.80;0.47;;;;;;;;;;5036115;28;20170;-82
2023/08/13 12:00:42;;;;;;;0.90;0.30;;;;;;;;;;5036410;28;20425;-82
2023/08/13 12:03:08;;;;;;;1.00;0.20;;;;;;;;;;5036179;28;20465;-82
2023/08/13 12:05:35;;;;;;;1.70;0.30;;;;;;;;;;5036376;28;20185;-82
2023/08/13 12:08:04;;;;;;;3.27;0.30;;;;;;;;;;5051711;28;20178;-82
2023/08/13 12:10:31;;;;;;;2.37;0.40;;;;;;;;;;5036245;28;20409;-82
2023/08/13 12:12:57;;;;;;;1.90;0.50;;;;;;;;;;5051094;28;20421;-83
2023/08/13 12:15:23;;;;;;;2.43;0.30;;;;;;;;;;5036118;28;20417;-81
2023/08/13 12:17:50;;;;;;;1.03;0.23;;;;;;;;;;5036134;28;20181;-82
2023/08/13 12:20:16;;;;;;;2.13;0.30;;;;;;;;;;5035996;28;20424;-81
2023/08/13 12:22:42;;;;;;;1.00;0.47;;;;;;;;;;5035981;28;20440;-82
2023/08/13 12:25:08;;;;;;;2.87;0.30;;;;;;;;;;5035921;28;20829;-82
2023/08/13 12:27:34;;;;;;;1.33;0.20;;;;;;;;;;5035554;28;20186;-82
2023/08/13 12:30:00;;;;;;;1.90;0.40;;;;;;;;;;5035879;28;20428;-82
2023/08/13 12:32:26;;;;;;;2.63;0.47;;;;;;;;;;5035875;28;20405;-82
2023/08/13 12:34:52;;;;;;;1.60;0.67;;;;;;;;;;5035663;28;20567;-82
2023/08/13 12:37:18;;;;;;;1.00;0.20;;;;;;;;;;5035682;28;20174;-83
2023/08/13 12:39:44;;;;;;;2.10;0.30;;;;;;;;;;5035689;28;20182;-82
2023/08/13 12:42:10;;;;;;;1.20;0.20;;;;;;;;;;5035327;28;20189;-82
2023/08/13 12:44:36;;;;;;;1.90;0.30;;;;;;;;;;5050984;28;20433;-83
2023/08/13 12:47:02;;;;;;;2.50;0.70;;;;;;;;;;5035057;28;20515;-82
2023/08/13 12:49:28;;;;;;;1.10;0.20;;;;;;;;;;5035293;28;20544;-82
2023/08/13 12:51:54;;;;;;;2.07;0.43;;;;;;;;;;5050803;28;20482;-82
2023/08/13 12:54:20;;;;;;;3.17;0.27;;;;;;;;;;5035289;28;20221;-82
2023/08/13 12:56:46;;;;;;;2.73;0.30;;;;;;;;;;5035330;28;20764;-82
2023/08/13 12:59:12;;;;;;;1.53;0.20;;;;;;;;;;5035022;28;20189;-81
2023/08/13 13:01:38;;;;;;;0.83;0.20;;;;;;;;;;5035244;28;20174;-82
2023/08/13 13:04:04;;;;;;;1.93;0.50;;;;;;;;;;5035260;28;20174;-83
2023/08/13 13:06:30;;;;;;;1.73;0.40;;;;;;;;;;5035216;28;20261;-83
2023/08/13 13:08:57;;;;;;;1.43;0.43;;;;;;;;;;5035121;28;20445;-82
2023/08/13 13:11:22;;;;;;;1.37;0.27;;;;;;;;;;5035257;28;20178;-82
2023/08/13 13:13:48;;;;;;;2.10;0.30;;;;;;;;;;5034647;28;20836;-83
2023/08/13 13:16:14;;;;;;;1.30;0.20;;;;;;;;;;5034955;28;20589;-84
2023/08/13 13:18:40;;;;;;;0.93;0.20;;;;;;;;;;5034959;28;20444;-82
2023/08/13 13:21:06;;;;;;;2.60;0.50;;;;;;;;;;5034904;28;20174;-82
2023/08/13 13:23:33;;;;;;;1.10;0.20;;;;;;;;;;5034889;28;20174;-83
2023/08/13 13:25:59;;;;;;;2.87;0.30;;;;;;;;;;5034858;28;20507;-82
2023/08/13 13:28:25;;;;;;;2.43;0.40;;;;;;;;;;5034588;28;20501;-83
2023/08/13 13:30:51;;;;;;;4.13;0.80;;;;;;;;;;5034764;28;20182;-83
2023/08/13 13:33:17;;;;;;;2.43;0.70;;;;;;;;;;5034621;28;20210;-82
2023/08/13 13:35:42;;;;;;;2.80;0.47;;;;;;;;;;5034659;28;20170;-83
2023/08/13 13:38:10;;;;;;;1.10;0.37;;;;;;;;;;5034562;28;20175;-82
2023/08/13 13:40:36;;;;;;;1.80;0.30;;;;;;;;;;5049931;28;20178;-83
2023/08/13 13:43:02;;;;;;;0.70;0.30;;;;;;;;;;5049620;28;20429;-82
2023/08/13 13:45:28;;;;;;;2.43;0.47;;;;;;;;;;5034501;28;20500;-82
2023/08/13 13:47:54;;;;;;;1.80;0.30;;;;;;;;;;5034408;28;20414;-82
2023/08/13 13:50:21;;;;;;;1.67;0.30;;;;;;;;;;5034369;28;20968;-82
2023/08/13 13:52:47;;;;;;;2.40;0.43;;;;;;;;;;5034688;28;20413;-83
2023/08/13 13:55:14;;;;;;;1.83;0.30;;;;;;;;;;5034188;28;20475;-82
2023/08/13 13:57:39;;;;;;;1.53;0.20;;;;;;;;;;5033885;28;20411;-83
2023/08/13 14:00:06;;;;;;;1.37;0.37;;;;;;;;;;5034040;28;20504;-82
2023/08/13 14:02:33;;;;;;;1.03;0.20;;;;;;;;;;5033941;28;20456;-82
2023/08/13 14:04:59;;;;;;;1.30;0.20;;;;;;;;;;5034070;28;20413;-82
2023/08/13 14:07:25;;;;;;;2.03;0.40;;;;;;;;;;5034061;28;20424;-82
2023/08/13 14:09:51;;;;;;;1.37;0.20;;;;;;;;;;5033990;28;20413;-82
2023/08/13 14:12:16;;;;;;;1.47;0.50;;;;;;;;;;5034959;28;20436;-83
2023/08/13 14:14:43;;;;;;;1.70;0.30;;;;;;;;;;5033890;28;20248;-82
2023/08/13 14:17:08;;;;;;;2.57;0.33;;;;;;;;;;5033913;28;20174;-81
2023/08/13 14:19:34;;;;;;;2.67;0.60;;;;;;;;;;5033722;28;20421;-82
2023/08/13 14:22:00;;;;;;;2.40;0.50;;;;;;;;;;5033842;28;20420;-82
2023/08/13 14:24:27;;;;;;;1.67;0.40;;;;;;;;;;5033775;28;20178;-82
2023/08/13 14:26:53;;;;;;;2.17;0.57;;;;;;;;;;5033372;28;20578;-81
2023/08/13 14:29:19;;;;;;;1.63;0.30;;;;;;;;;;5033657;28;20409;-83
2023/08/13 14:31:45;;;;;;;1.70;0.50;;;;;;;;;;5033545;28;20405;-82
2023/08/13 14:34:11;;;;;;;1.90;0.40;;;;;;;;;;5033426;28;20575;-82
2023/08/13 14:36:37;;;;;;;1.53;0.70;;;;;;;;;;5033494;28;20956;-82
2023/08/13 14:39:03;;;;;;;1.90;0.40;;;;;;;;;;5033648;28;20471;-81